Time;durP1;ratioP1;P1;durP2;ratioP2;P2;SDS_P1;SDS_P2;PMS_P1;PMS_P2;Temp;Humidity;BMP_temperature;BMP_pressure;BME280_temperature;BME280_humidity;BME280_pressure;Samples;Min_cycle;Max_cycle;Signal;HPM_P1;HPM_P2
2023/03/02 00:00:09;;;;;;;28.13;14.18;;;;;;;0.54;81.70;102820.72;6105664;19;20133;-73
2023/03/02 00:02:21;;;;;;;28.35;14.70;;;;;;;0.56;82.12;102809.59;6104644;19;20342;-73
2023/03/02 00:04:30;;;;;;;28.35;12.55;;;;;;;0.52;82.64;102815.47;6101873;19;20546;-73
2023/03/02 00:06:39;;;;;;;34.28;15.90;;;;;;;0.54;82.87;102811.25;6103353;19;20913;-73
2023/03/02 00:08:46;;;;;;;34.50;17.63;;;;;;;0.56;83.17;102811.31;6100606;19;20031;-73
2023/03/02 00:10:55;;;;;;;30.15;15.98;;;;;;;0.58;83.42;102814.81;6105678;19;20520;-73
2023/03/02 00:13:03;;;;;;;32.70;15.35;;;;;;;0.55;83.60;102812.13;6103724;19;20026;-72
2023/03/02 00:15:10;;;;;;;39.28;16.80;;;;;;;0.59;84.49;102806.22;6083519;19;20042;-73
2023/03/02 00:17:18;;;;;;;36.38;15.93;;;;;;;0.55;84.75;102810.41;6106300;19;20006;-72
2023/03/02 00:19:23;;;;;;;38.63;17.05;;;;;;;0.59;84.97;102809.69;6110287;19;20050;-73
2023/03/02 00:21:27;;;;;;;38.08;18.23;;;;;;;0.64;85.44;102812.44;6112349;19;20078;-72
2023/03/02 00:23:37;;;;;;;45.80;18.52;;;;;;;0.64;85.93;102808.13;6111203;19;20718;-73
2023/03/02 00:25:42;;;;;;;40.38;18.80;;;;;;;0.67;85.89;102801.31;6111722;19;20554;-73
2023/03/02 00:27:52;;;;;;;38.85;16.60;;;;;;;0.63;86.41;102800.31;6109930;19;20014;-72
2023/03/02 00:30:00;;;;;;;36.70;15.80;;;;;;;0.63;86.56;102808.06;6110013;19;20014;-73
2023/03/02 00:32:05;;;;;;;40.80;18.58;;;;;;;0.63;87.02;102800.31;6111864;19;20107;-73
2023/03/02 00:34:13;;;;;;;52.30;21.35;;;;;;;0.66;87.00;102792.66;6110825;19;20015;-73
2023/03/02 00:36:26;;;;;;;44.38;19.67;;;;;;;0.66;87.90;102795.25;6087636;19;20006;-72
2023/03/02 00:38:33;;;;;;;45.08;19.58;;;;;;;0.71;87.82;102792.78;6108745;19;20015;-72
2023/03/02 00:40:40;;;;;;;40.72;19.63;;;;;;;0.64;87.99;102781.38;6111556;19;20094;-72
2023/03/02 00:42:47;;;;;;;47.58;21.98;;;;;;;0.70;87.97;102786.75;6060826;19;20045;-71
2023/03/02 00:44:58;;;;;;;51.97;22.35;;;;;;;0.64;87.93;102786.56;6109800;19;20024;-71
2023/03/02 00:47:40;;;;;;;63.00;23.05;;;;;;;0.61;88.47;102791.66;6081828;19;20015;-71
2023/03/02 00:50:01;;;;;;;44.30;19.48;;;;;;;0.66;88.61;102782.31;6105340;19;20029;-73
2023/03/02 00:52:07;;;;;;;46.80;20.45;;;;;;;0.65;88.69;102777.97;6108492;19;20051;-72
2023/03/02 00:56:35;;;;;;;45.38;20.23;;;;;;;0.55;89.10;102779.38;6109694;19;20014;-72
2023/03/02 00:58:40;;;;;;;45.70;21.45;;;;;;;0.56;89.26;102778.56;6108598;19;20318;-75
2023/03/02 01:00:47;;;;;;;50.28;22.17;;;;;;;0.59;89.30;102773.47;6081046;19;20014;-72
2023/03/02 01:02:55;;;;;;;57.97;21.77;;;;;;;0.58;89.31;102776.00;6109425;19;20033;-73
2023/03/02 01:05:03;;;;;;;49.72;21.83;;;;;;;0.53;89.33;102782.75;6108777;19;20479;-72
2023/03/02 01:07:10;;;;;;;49.97;20.65;;;;;;;0.51;89.83;102777.53;6108508;19;20018;-72
2023/03/02 01:09:21;;;;;;;50.95;22.17;;;;;;;0.46;90.13;102781.66;6106230;19;20428;-72
2023/03/02 01:11:48;;;;;;;49.80;20.77;;;;;;;0.46;90.13;102773.91;6107369;19;20014;-73
2023/03/02 01:13:53;;;;;;;49.75;22.20;;;;;;;0.40;90.25;102782.34;6109120;19;20015;-73
2023/03/02 01:16:05;;;;;;;46.55;21.42;;;;;;;0.39;90.33;102780.56;6110912;19;20015;-74
2023/03/02 01:18:13;;;;;;;47.25;21.90;;;;;;;0.42;90.06;102782.38;6103215;19;20011;-73
2023/03/02 01:20:22;;;;;;;54.08;22.90;;;;;;;0.44;90.11;102784.19;6109612;19;20401;-73
2023/03/02 01:22:27;;;;;;;55.88;21.13;;;;;;;0.43;90.43;102786.75;6110437;19;20487;-74
2023/03/02 01:24:42;;;;;;;43.03;21.13;;;;;;;0.35;90.62;102789.09;6095406;19;20094;-74
2023/03/02 01:26:48;;;;;;;46.88;20.55;;;;;;;0.35;90.79;102794.25;6060747;19;20023;-72
2023/03/02 01:28:54;;;;;;;51.33;21.38;;;;;;;0.36;91.26;102793.41;6107208;19;20017;-74
2023/03/02 01:31:00;;;;;;;50.83;24.65;;;;;;;0.38;91.10;102794.34;6082915;19;20512;-73
2023/03/02 01:33:06;;;;;;;49.10;21.67;;;;;;;0.38;91.11;102799.53;6104936;19;20056;-73
2023/03/02 01:35:11;;;;;;;52.58;22.73;;;;;;;0.29;91.40;102803.50;6082813;19;20011;-74
2023/03/02 01:37:19;;;;;;;51.13;20.58;;;;;;;0.26;91.21;102788.75;6106361;19;20007;-74
2023/03/02 01:39:24;;;;;;;52.95;20.40;;;;;;;0.28;91.67;102791.41;6106077;19;20011;-74
2023/03/02 01:41:30;;;;;;;57.65;22.95;;;;;;;0.26;91.47;102785.31;6106795;19;20443;-74
2023/03/02 01:43:35;;;;;;;47.13;21.63;;;;;;;0.28;92.10;102786.25;6102555;19;20006;-74
2023/03/02 01:45:53;;;;;;;49.55;21.67;;;;;;;0.20;92.08;102771.34;6109307;19;20006;-74
2023/03/02 01:47:58;;;;;;;43.58;19.60;;;;;;;0.25;91.86;102784.44;6105077;19;20060;-74
2023/03/02 01:50:07;;;;;;;49.17;21.08;;;;;;;0.25;91.86;102779.25;6104071;19;20038;-74
2023/03/02 01:52:14;;;;;;;48.15;21.65;;;;;;;0.17;92.04;102775.53;6104709;19;20044;-74
2023/03/02 01:54:31;;;;;;;49.83;21.02;;;;;;;0.13;92.33;102777.16;6107501;19;20018;-74
2023/03/02 01:56:40;;;;;;;55.08;21.40;;;;;;;0.12;92.09;102779.69;6082318;19;20406;-72
2023/03/02 01:58:47;;;;;;;53.95;22.33;;;;;;;0.11;92.14;102776.22;6108269;19;20022;-73
2023/03/02 02:00:58;;;;;;;50.20;22.20;;;;;;;0.02;92.15;102782.78;6101289;19;20471;-74
2023/03/02 02:03:12;;;;;;;46.00;19.40;;;;;;;0.03;92.38;102771.59;6105030;19;20035;-73
2023/03/02 02:05:26;;;;;;;49.42;21.05;;;;;;;0.04;92.51;102770.78;6090954;19;20020;-73
2023/03/02 02:07:35;;;;;;;46.63;18.65;;;;;;;-0.01;92.74;102766.31;6090226;19;20051;-75
2023/03/02 02:09:49;;;;;;;49.47;20.33;;;;;;;0.05;92.58;102768.25;6089166;19;20030;-74
2023/03/02 02:11:54;;;;;;;56.50;21.88;;;;;;;0.02;92.54;102769.84;6085492;19;20017;-72
2023/03/02 02:14:01;;;;;;;53.00;21.63;;;;;;;0.02;92.64;102773.31;6107314;19;20073;-73
2023/03/02 02:27:25;;;;;;;44.22;18.23;;;;;;;-0.12;92.80;102757.34;6006031;19;20014;-70
2023/03/02 02:29:45;;;;;;;50.25;20.15;;;;;;;-0.13;93.04;102755.59;6030107;19;20920;-72
2023/03/02 02:31:57;;;;;;;54.65;22.30;;;;;;;-0.16;93.01;102746.84;6110870;19;20039;-72
2023/03/02 02:34:06;;;;;;;55.90;20.90;;;;;;;-0.15;93.02;102744.31;6110575;19;20014;-73
2023/03/02 02:36:17;;;;;;;46.92;17.80;;;;;;;-0.11;93.27;102751.34;6084165;19;20021;-73
2023/03/02 02:45:39;;;;;;;49.28;20.08;;;;;;;-0.14;93.64;102751.22;6099467;19;20007;-71
2023/03/02 02:47:46;;;;;;;51.30;20.67;;;;;;;-0.11;93.44;102743.56;6097174;19;20011;-71
2023/03/02 02:49:54;;;;;;;60.33;22.42;;;;;;;-0.15;93.72;102740.88;6098104;19;20599;-70
2023/03/02 02:52:00;;;;;;;59.97;22.05;;;;;;;-0.14;93.47;102745.19;6099471;19;20018;-69
2023/03/02 02:54:06;;;;;;;54.80;21.25;;;;;;;-0.14;93.51;102743.47;6097672;19;20006;-68
2023/03/02 02:56:13;;;;;;;55.10;22.92;;;;;;;-0.12;93.22;102751.31;6099399;19;20027;-70
2023/03/02 02:58:29;;;;;;;54.60;21.95;;;;;;;-0.15;93.48;102746.91;6101252;19;20013;-70
2023/03/02 03:00:39;;;;;;;58.35;20.80;;;;;;;-0.13;93.48;102746.94;6100599;19;20074;-70
2023/03/02 03:02:49;;;;;;;54.38;23.67;;;;;;;-0.11;93.63;102746.16;6099362;19;20011;-68
2023/03/02 03:05:02;;;;;;;63.45;24.42;;;;;;;-0.05;93.59;102736.06;6097132;19;20732;-69
2023/03/02 03:07:08;;;;;;;62.80;21.83;;;;;;;-0.07;93.45;102729.94;6104431;19;20417;-69
2023/03/02 03:09:13;;;;;;;57.03;23.55;;;;;;;-0.08;93.28;102735.06;6104644;19;20011;-69
2023/03/02 03:11:18;;;;;;;63.13;22.38;;;;;;;-0.11;93.46;102741.00;6102445;19;20224;-69
2023/03/02 03:13:23;;;;;;;50.38;20.52;;;;;;;-0.13;93.64;102726.25;6103331;19;20429;-68
2023/03/02 03:15:27;;;;;;;63.38;24.40;;;;;;;-0.12;93.60;102728.91;6105333;19;20021;-71
2023/03/02 03:17:35;;;;;;;59.17;24.23;;;;;;;-0.08;93.46;102730.78;6103334;19;20054;-70
2023/03/02 03:19:42;;;;;;;54.13;21.63;;;;;;;-0.09;93.53;102720.38;6102256;19;20031;-71
2023/03/02 03:21:49;;;;;;;62.08;24.05;;;;;;;-0.12;93.36;102723.75;6101931;19;20011;-70
2023/03/02 03:23:54;;;;;;;65.07;24.73;;;;;;;-0.11;93.51;102724.63;6100135;19;20074;-69
2023/03/02 03:25:58;;;;;;;57.08;21.58;;;;;;;-0.12;93.58;102728.03;6099900;19;20010;-69
2023/03/02 03:28:03;;;;;;;58.45;23.65;;;;;;;-0.12;93.68;102734.09;6100011;19;20087;-68
2023/03/02 03:30:09;;;;;;;53.55;21.85;;;;;;;-0.11;93.80;102729.78;6100026;19;20561;-69
2023/03/02 03:32:14;;;;;;;59.10;22.40;;;;;;;-0.08;93.56;102730.78;6097313;19;20463;-69
2023/03/02 03:34:22;;;;;;;60.30;21.85;;;;;;;-0.06;93.66;102729.09;6096424;19;20040;-69
2023/03/02 03:36:27;;;;;;;60.90;23.15;;;;;;;-0.08;93.52;102725.63;6098566;19;20086;-70
2023/03/02 03:38:32;;;;;;;57.47;22.55;;;;;;;-0.11;93.50;102722.91;6097437;19;20045;-69
2023/03/02 03:40:38;;;;;;;55.05;22.30;;;;;;;-0.11;93.42;102728.06;6098984;19;20047;-69
2023/03/02 03:42:42;;;;;;;50.25;20.17;;;;;;;-0.12;93.38;102723.75;6097019;19;20486;-69
2023/03/02 03:44:50;;;;;;;55.67;21.02;;;;;;;-0.11;93.61;102725.50;6097015;19;20719;-69
2023/03/02 03:46:55;;;;;;;56.17;20.75;;;;;;;-0.17;93.20;102733.03;6094440;19;20471;-69
2023/03/02 03:49:00;;;;;;;60.78;21.83;;;;;;;-0.16;93.43;102728.75;6096132;19;20011;-70
2023/03/02 03:51:08;;;;;;;58.88;23.10;;;;;;;-0.18;93.46;102728.72;6097414;19;20029;-69
2023/03/02 03:53:12;;;;;;;57.67;20.65;;;;;;;-0.15;93.47;102728.81;6092163;19;20002;-69
2023/03/02 03:55:18;;;;;;;53.47;21.13;;;;;;;-0.15;93.59;102730.53;6100681;19;20395;-69
2023/03/02 03:57:23;;;;;;;59.17;22.05;;;;;;;-0.14;93.47;102729.69;6097719;19;20017;-68
2023/03/02 03:59:28;;;;;;;60.60;22.00;;;;;;;-0.15;93.24;102726.22;6098654;19;20462;-69
2023/03/02 04:01:33;;;;;;;57.05;22.27;;;;;;;-0.16;93.47;102729.63;6099118;19;20010;-69
2023/03/02 04:03:39;;;;;;;65.82;23.83;;;;;;;-0.16;93.36;102729.63;6099141;19;20055;-70
2023/03/02 04:05:44;;;;;;;60.92;22.27;;;;;;;-0.17;93.27;102740.78;6096730;19;20096;-69
2023/03/02 04:07:52;;;;;;;55.65;21.98;;;;;;;-0.15;93.35;102741.72;6095802;19;20050;-69
2023/03/02 04:10:02;;;;;;;67.78;23.17;;;;;;;-0.14;93.29;102740.03;6100572;19;20015;-70
2023/03/02 04:12:09;;;;;;;60.97;21.60;;;;;;;-0.14;93.37;102733.16;6095560;19;20024;-70
2023/03/02 04:14:14;;;;;;;59.15;22.05;;;;;;;-0.12;93.24;102744.41;6097740;19;20010;-70
2023/03/02 04:16:19;;;;;;;57.53;21.02;;;;;;;-0.18;93.15;102740.75;6096319;19;20485;-70
2023/03/02 04:18:24;;;;;;;63.33;22.17;;;;;;;-0.15;93.11;102739.16;6099107;19;20011;-70
2023/03/02 04:20:29;;;;;;;55.63;20.50;;;;;;;-0.17;93.25;102740.78;6098214;19;20014;-70
2023/03/02 04:22:34;;;;;;;60.05;23.15;;;;;;;-0.08;93.30;102750.56;6098047;19;20015;-70
2023/03/02 04:24:42;;;;;;;64.75;23.38;;;;;;;-0.13;93.02;102742.69;6074012;19;20018;-70
2023/03/02 04:26:47;;;;;;;68.25;23.45;;;;;;;-0.21;93.08;102741.53;6096827;19;20027;-70
2023/03/02 04:28:52;;;;;;;61.60;23.00;;;;;;;-0.19;93.18;102739.00;6096308;19;20017;-70
2023/03/02 04:30:57;;;;;;;60.20;20.92;;;;;;;-0.26;93.21;102743.09;6094297;19;20923;-70
2023/03/02 04:33:02;;;;;;;51.70;19.38;;;;;;;-0.21;93.24;102741.53;6096102;19;20078;-70
2023/03/02 04:35:08;;;;;;;57.95;22.02;;;;;;;-0.23;93.07;102743.19;6095132;19;20022;-70
2023/03/02 04:37:14;;;;;;;55.15;20.30;;;;;;;-0.19;93.18;102742.44;6095102;19;20042;-70
2023/03/02 04:39:20;;;;;;;63.50;23.02;;;;;;;-0.23;93.01;102738.00;6096560;19;20020;-70
2023/03/02 04:41:28;;;;;;;60.50;22.55;;;;;;;-0.22;93.05;102743.22;6097913;19;20006;-69
2023/03/02 04:43:34;;;;;;;63.95;21.98;;;;;;;-0.18;92.96;102733.00;6098378;19;20504;-70
2023/03/02 04:45:39;;;;;;;49.05;21.63;;;;;;;-0.20;92.90;102735.53;6096177;19;20027;-70
2023/03/02 04:47:44;;;;;;;64.53;22.15;;;;;;;-0.21;92.80;102728.63;6097095;19;20010;-70
2023/03/02 04:49:53;;;;;;;62.72;23.70;;;;;;;-0.25;93.02;102729.31;6095622;19;20009;-70
2023/03/02 04:51:58;;;;;;;65.30;23.38;;;;;;;-0.22;93.13;102726.84;6096029;19;20027;-70
2023/03/02 04:54:05;;;;;;;67.38;22.77;;;;;;;-0.25;93.00;102729.31;6091962;19;20017;-70
2023/03/02 04:56:10;;;;;;;57.58;20.40;;;;;;;-0.26;92.99;102730.16;6097912;19;20010;-70
2023/03/02 04:58:20;;;;;;;56.70;19.52;;;;;;;-0.24;92.91;102729.38;6097157;19;20015;-70
2023/03/02 05:00:27;;;;;;;63.53;24.90;;;;;;;-0.27;92.72;102733.56;6097784;19;20015;-70
2023/03/02 05:02:35;;;;;;;59.50;21.02;;;;;;;-0.30;92.91;102733.44;6097880;19;20440;-74
2023/03/02 05:04:41;;;;;;;57.78;21.35;;;;;;;-0.29;92.88;102736.09;6096179;19;20037;-74
2023/03/02 05:06:47;;;;;;;61.53;21.45;;;;;;;-0.26;93.08;102738.78;6101363;19;20350;-74
2023/03/02 05:08:53;;;;;;;41.35;18.98;;;;;;;-0.24;92.63;102731.06;6094577;19;20021;-75
2023/03/02 05:10:58;;;;;;;60.13;21.00;;;;;;;-0.25;92.72;102729.31;6101737;19;20414;-73
2023/03/02 05:13:03;;;;;;;54.60;20.38;;;;;;;-0.32;92.84;102735.97;6100726;19;20010;-74
2023/03/02 05:15:14;;;;;;;56.72;20.80;;;;;;;-0.32;92.84;102735.97;6102526;19;20011;-74
2023/03/02 05:17:19;;;;;;;59.15;21.30;;;;;;;-0.30;92.73;102726.56;6102932;19;20460;-73
2023/03/02 05:19:24;;;;;;;59.97;21.70;;;;;;;-0.30;92.62;102720.53;6103859;19;20472;-75
2023/03/02 05:21:29;;;;;;;60.80;22.00;;;;;;;-0.29;92.54;102730.94;6102753;19;20011;-74
2023/03/02 05:23:37;;;;;;;59.80;20.95;;;;;;;-0.31;92.50;102727.41;6100874;19;20011;-74
2023/03/02 05:25:42;;;;;;;62.33;21.10;;;;;;;-0.31;92.66;102726.53;6103644;19;20014;-73
2023/03/02 05:27:47;;;;;;;74.85;26.00;;;;;;;-0.32;92.73;102719.59;6103082;19;20011;-74
2023/03/02 05:29:52;;;;;;;56.90;21.65;;;;;;;-0.29;92.60;102714.53;6103189;19;20117;-75
2023/03/02 05:31:59;;;;;;;56.28;19.80;;;;;;;-0.32;92.67;102712.72;6102405;19;20016;-75
2023/03/02 05:34:11;;;;;;;59.50;21.00;;;;;;;-0.37;92.77;102713.38;6102387;19;20109;-70
2023/03/02 05:36:16;;;;;;;64.97;21.05;;;;;;;-0.33;92.82;102705.81;6100921;19;20469;-70
2023/03/02 05:38:26;;;;;;;51.85;19.15;;;;;;;-0.36;92.89;102710.00;6104852;19;20015;-70
2023/03/02 05:40:31;;;;;;;61.55;19.60;;;;;;;-0.36;92.85;102715.16;6104299;19;20051;-69
2023/03/02 05:42:35;;;;;;;65.57;21.98;;;;;;;-0.32;92.82;102717.88;6103290;19;20027;-69
2023/03/02 05:44:40;;;;;;;64.75;21.35;;;;;;;-0.35;92.74;102716.91;6103677;19;20070;-69
2023/03/02 05:46:45;;;;;;;60.70;21.42;;;;;;;-0.35;92.75;102712.63;6101535;19;20458;-69
2023/03/02 05:48:55;;;;;;;56.63;20.33;;;;;;;-0.33;92.74;102717.84;6078642;19;20003;-69
2023/03/02 05:51:02;;;;;;;69.47;21.60;;;;;;;-0.41;92.71;102715.00;6101838;19;20022;-69
2023/03/02 05:53:10;;;;;;;65.20;20.25;;;;;;;-0.40;92.87;102718.47;6097412;19;20482;-69
2023/03/02 05:55:17;;;;;;;65.03;21.38;;;;;;;-0.41;92.89;102721.88;6080614;19;20272;-69
2023/03/02 05:57:22;;;;;;;53.42;19.67;;;;;;;-0.41;92.85;102719.28;6105884;19;20010;-68
2023/03/02 05:59:29;;;;;;;72.50;23.13;;;;;;;-0.33;93.08;102721.31;6112811;19;20010;-70
2023/03/02 06:01:35;;;;;;;65.68;22.10;;;;;;;-0.39;93.01;102723.69;6110189;19;20017;-70
2023/03/02 06:03:40;;;;;;;72.15;25.48;;;;;;;-0.40;93.00;102734.81;6113696;19;20587;-69
2023/03/02 06:06:16;;;;;;;62.58;22.40;;;;;;;-0.37;92.92;102731.47;6029647;19;20014;-70
2023/03/02 06:09:23;;;;;;;53.58;20.65;;;;;;;-0.36;92.99;102731.53;6042416;19;20014;-74
2023/03/02 06:12:10;;;;;;;46.35;18.67;;;;;;;-0.35;92.96;102727.25;6002510;19;20026;-70
2023/03/02 06:18:05;;;;;;;58.35;21.30;;;;;;;-0.37;92.61;102740.13;6059297;19;20010;-70
2023/03/02 06:20:47;;;;;;;;;;;;;;;-0.39;92.54;102743.47;6025812;19;20010;-73
2023/03/02 06:23:04;;;;;;;57.50;20.20;;;;;;;-0.46;92.65;102743.25;6015408;19;19974;-74
2023/03/02 06:25:13;;;;;;;58.65;21.10;;;;;;;-0.45;92.62;102750.19;6102271;19;20121;-74
2023/03/02 06:27:18;;;;;;;56.40;21.08;;;;;;;-0.43;92.78;102747.63;6101550;19;20581;-74
2023/03/02 06:29:24;;;;;;;61.97;21.45;;;;;;;-0.42;92.67;102749.41;6100634;19;20025;-73
2023/03/02 06:31:29;;;;;;;42.10;18.67;;;;;;;-0.42;92.74;102749.41;6100058;19;20011;-74
2023/03/02 06:33:34;;;;;;;66.75;23.95;;;;;;;-0.48;92.50;102762.09;6101487;19;20010;-74
2023/03/02 06:35:39;;;;;;;66.82;20.15;;;;;;;-0.51;92.92;102751.66;6094721;19;20007;-74
2023/03/02 06:37:45;;;;;;;74.95;23.45;;;;;;;-0.50;92.99;102748.22;6099642;19;20851;-74
2023/03/02 06:39:52;;;;;;;63.95;21.25;;;;;;;-0.49;92.97;102757.75;6100171;19;20017;-73
2023/03/02 06:41:58;;;;;;;53.85;18.42;;;;;;;-0.43;92.91;102759.69;6100690;19;20466;-73
2023/03/02 06:44:03;;;;;;;59.92;20.63;;;;;;;-0.40;92.92;102754.63;6100765;19;20041;-74
2023/03/02 06:46:09;;;;;;;62.33;20.48;;;;;;;-0.41;92.82;102760.63;6102417;19;20047;-74
2023/03/02 06:48:15;;;;;;;70.18;22.77;;;;;;;-0.39;92.80;102753.81;6103088;19;20010;-74
2023/03/02 06:50:20;;;;;;;65.68;21.95;;;;;;;-0.34;92.58;102757.41;6102846;19;20011;-75
2023/03/02 06:52:26;;;;;;;67.03;20.65;;;;;;;-0.39;92.73;102756.41;6100660;19;20022;-75
2023/03/02 06:54:31;;;;;;;63.97;20.55;;;;;;;-0.39;92.83;102757.28;6101647;19;20406;-74
2023/03/02 06:56:39;;;;;;;63.53;19.02;;;;;;;-0.40;92.66;102758.06;6101518;19;20017;-75
2023/03/02 06:58:46;;;;;;;66.05;23.40;;;;;;;-0.39;92.60;102761.56;6099777;19;20030;-74
2023/03/02 07:00:51;;;;;;;77.07;24.52;;;;;;;-0.42;92.82;102759.75;6095195;19;20018;-73
2023/03/02 07:02:57;;;;;;;69.55;23.10;;;;;;;-0.37;92.77;102763.38;6097568;19;20006;-74
2023/03/02 07:05:01;;;;;;;58.78;19.90;;;;;;;-0.35;92.60;102760.81;6101211;19;20031;-74
2023/03/02 07:07:06;;;;;;;64.93;21.30;;;;;;;-0.31;92.63;102760.13;6078712;19;20259;-73
2023/03/02 07:09:11;;;;;;;62.35;20.13;;;;;;;-0.31;92.36;102762.72;6077158;19;20560;-73
2023/03/02 07:11:16;;;;;;;71.40;24.05;;;;;;;-0.35;92.41;102760.81;6100666;19;20542;-74
2023/03/02 07:13:23;;;;;;;72.95;24.20;;;;;;;-0.33;92.41;102759.19;6100830;19;20007;-74
2023/03/02 07:15:28;;;;;;;66.65;23.58;;;;;;;-0.30;92.32;102769.63;6100916;19;20038;-74
2023/03/02 07:17:32;;;;;;;77.85;22.10;;;;;;;-0.34;92.34;102763.47;6101425;19;20441;-74
2023/03/02 07:19:37;;;;;;;69.55;24.38;;;;;;;-0.31;92.25;102768.75;6099400;19;20436;-74
2023/03/02 07:21:44;;;;;;;73.25;23.90;;;;;;;-0.28;92.35;102770.56;6098772;19;20043;-74
2023/03/02 07:23:49;;;;;;;57.67;20.77;;;;;;;-0.27;92.19;102773.19;6102771;19;20010;-74
2023/03/02 07:25:56;;;;;;;62.92;22.77;;;;;;;-0.22;92.00;102765.59;6101980;19;20006;-74
2023/03/02 07:28:01;;;;;;;71.57;24.85;;;;;;;-0.16;92.05;102767.50;6102626;19;20025;-74
2023/03/02 07:30:10;;;;;;;71.00;22.38;;;;;;;-0.14;91.72;102769.31;6102818;19;20048;-74
2023/03/02 07:32:15;;;;;;;77.72;22.55;;;;;;;-0.12;91.76;102765.09;6098159;19;20010;-74
2023/03/02 07:34:20;;;;;;;64.63;23.02;;;;;;;-0.09;91.78;102770.34;6097279;19;20014;-74
2023/03/02 07:36:25;;;;;;;70.32;21.65;;;;;;;-0.06;91.43;102775.63;6096941;19;20010;-74
2023/03/02 07:38:32;;;;;;;74.95;23.45;;;;;;;-0.02;91.31;102772.34;6098935;19;20474;-69
2023/03/02 07:40:41;;;;;;;62.10;21.85;;;;;;;-0.01;91.57;102771.50;6096113;19;20014;-70
2023/03/02 07:42:48;;;;;;;77.22;24.15;;;;;;;0.06;91.50;102769.13;6096190;19;20776;-70
2023/03/02 07:44:54;;;;;;;55.97;20.33;;;;;;;0.08;91.46;102759.72;6092834;19;20014;-70
2023/03/02 07:47:04;;;;;;;55.70;18.20;;;;;;;0.16;91.42;102760.88;6097311;19;20011;-70
2023/03/02 07:49:08;;;;;;;65.55;21.25;;;;;;;0.19;91.23;102758.38;6096874;19;20566;-70
2023/03/02 07:51:13;;;;;;;77.93;23.65;;;;;;;0.16;91.17;102759.16;6075477;19;20015;-70
2023/03/02 07:53:18;;;;;;;68.22;22.00;;;;;;;0.19;91.28;102766.13;6094552;19;20018;-69
2023/03/02 07:55:25;;;;;;;76.80;23.00;;;;;;;0.27;91.11;102763.81;6097935;19;20007;-69
2023/03/02 07:57:30;;;;;;;104.88;28.67;;;;;;;0.32;91.05;102768.31;6092006;19;20094;-70
2023/03/02 07:59:34;;;;;;;81.63;24.20;;;;;;;0.34;90.96;102774.41;6097421;19;20559;-70
2023/03/02 08:01:39;;;;;;;76.10;25.42;;;;;;;0.36;90.64;102770.13;6095658;19;20023;-70
2023/03/02 08:03:47;;;;;;;80.90;26.30;;;;;;;0.40;90.58;102772.00;6097095;19;20014;-70
2023/03/02 08:05:51;;;;;;;69.82;21.67;;;;;;;0.44;90.73;102768.69;6100136;19;20094;-70
2023/03/02 08:07:56;;;;;;;61.85;22.00;;;;;;;0.50;90.36;102761.94;6094671;19;20010;-70
2023/03/02 08:10:01;;;;;;;86.50;25.92;;;;;;;0.49;90.44;102761.06;6069770;19;20553;-70
2023/03/02 08:12:06;;;;;;;70.55;24.13;;;;;;;0.51;90.41;102764.59;6095886;19;20035;-70
2023/03/02 08:14:11;;;;;;;70.28;22.13;;;;;;;0.54;90.19;102768.97;6099452;19;20310;-70
2023/03/02 08:16:17;;;;;;;78.38;24.80;;;;;;;0.58;90.02;102763.97;6094796;19;20017;-70
2023/03/02 08:18:21;;;;;;;77.07;25.75;;;;;;;0.64;89.72;102763.28;6073867;19;20361;-70
2023/03/02 08:20:29;;;;;;;68.35;24.02;;;;;;;0.67;89.54;102760.78;6093986;19;20010;-70
2023/03/02 08:22:33;;;;;;;82.60;25.40;;;;;;;0.77;89.63;102762.81;6093072;19;20439;-70
2023/03/02 08:24:44;;;;;;;89.30;24.67;;;;;;;0.86;89.46;102765.69;6097089;19;20564;-70
2023/03/02 08:26:48;;;;;;;77.50;25.02;;;;;;;0.96;88.83;102763.38;6097051;19;21294;-70
2023/03/02 08:28:53;;;;;;;88.53;23.90;;;;;;;1.04;88.58;102761.91;6093056;19;20036;-70
2023/03/02 08:30:58;;;;;;;75.75;28.95;;;;;;;1.13;88.47;102767.34;6096026;19;20013;-70
2023/03/02 08:33:03;;;;;;;81.60;23.35;;;;;;;1.23;88.01;102756.41;6096707;19;20027;-70
2023/03/02 08:35:11;;;;;;;92.25;24.27;;;;;;;1.34;87.72;102761.03;6101238;19;20046;-70
2023/03/02 08:37:19;;;;;;;70.82;22.48;;;;;;;1.41;87.42;102757.78;6098563;19;20110;-70
2023/03/02 08:39:24;;;;;;;74.07;23.60;;;;;;;1.46;86.45;102766.56;6103297;19;20007;-70
2023/03/02 08:41:33;;;;;;;71.85;22.25;;;;;;;1.58;85.94;102758.25;6107999;19;20013;-70
2023/03/02 08:43:38;;;;;;;82.68;25.77;;;;;;;1.67;85.27;102748.13;6104858;19;20098;-70
2023/03/02 08:45:43;;;;;;;73.75;24.50;;;;;;;1.85;84.96;102752.94;6103818;19;20113;-69
2023/03/02 08:47:51;;;;;;;74.80;23.73;;;;;;;2.00;84.40;102753.31;6102654;19;20796;-70
2023/03/02 08:49:59;;;;;;;75.50;23.17;;;;;;;2.05;83.99;102753.44;6112903;19;20035;-70
2023/03/02 08:52:03;;;;;;;81.43;23.63;;;;;;;2.19;83.78;102758.16;6111468;19;20029;-70
2023/03/02 08:54:12;;;;;;;75.90;22.38;;;;;;;2.32;83.68;102750.69;6110886;19;20021;-70
2023/03/02 08:56:19;;;;;;;84.10;25.95;;;;;;;2.46;82.64;102751.88;6114673;19;20003;-70
2023/03/02 08:58:24;;;;;;;63.90;20.48;;;;;;;2.54;81.78;102763.31;6115703;19;20029;-75
2023/03/02 09:00:29;;;;;;;78.75;24.92;;;;;;;2.58;81.33;102756.44;6118573;19;20368;-75
2023/03/02 09:02:35;;;;;;;81.13;25.33;;;;;;;2.70;81.55;102748.09;6119354;19;20014;-75
2023/03/02 09:04:40;;;;;;;77.22;23.38;;;;;;;2.75;81.18;102743.88;6113242;19;20043;-75
2023/03/02 09:06:46;;;;;;;75.07;23.35;;;;;;;2.88;80.55;102743.31;6107726;19;20022;-75
2023/03/02 09:08:52;;;;;;;80.78;24.92;;;;;;;2.99;80.37;102752.19;6103236;19;20070;-74
2023/03/02 09:10:59;;;;;;;65.72;21.17;;;;;;;3.00;79.07;102740.09;6111127;19;20011;-75
2023/03/02 09:13:04;;;;;;;65.80;22.17;;;;;;;3.15;79.02;102750.81;6107724;19;20014;-75
2023/03/02 09:15:12;;;;;;;70.60;22.88;;;;;;;3.13;76.86;102743.81;6105971;19;20006;-75
2023/03/02 09:17:17;;;;;;;60.97;22.20;;;;;;;3.29;76.83;102751.06;6101691;19;20014;-75
2023/03/02 09:19:22;;;;;;;62.67;20.38;;;;;;;3.26;75.32;102746.69;6102159;19;20569;-75
2023/03/02 09:21:29;;;;;;;64.90;21.27;;;;;;;3.48;75.65;102744.56;6095125;19;20007;-75
2023/03/02 09:23:35;;;;;;;71.00;21.27;;;;;;;3.39;74.53;102747.81;6098620;19;20502;-75
2023/03/02 09:25:40;;;;;;;68.40;22.25;;;;;;;3.45;73.98;102740.16;6099273;19;20011;-75
2023/03/02 09:27:50;;;;;;;56.22;19.60;;;;;;;3.58;73.83;102742.97;6097828;19;20018;-75
2023/03/02 09:29:55;;;;;;;63.10;21.10;;;;;;;3.69;73.10;102744.09;6098861;19;20018;-75
2023/03/02 09:32:00;;;;;;;70.25;19.95;;;;;;;3.78;73.27;102738.16;6099490;19;20022;-75
2023/03/02 09:34:05;;;;;;;62.75;22.95;;;;;;;3.95;72.50;102732.41;6098654;19;20010;-75
2023/03/02 09:36:13;;;;;;;69.50;20.85;;;;;;;4.02;71.78;102736.00;6100585;19;20006;-75
2023/03/02 09:38:21;;;;;;;56.30;18.80;;;;;;;4.16;70.79;102739.72;6073315;19;20729;-74
2023/03/02 09:40:29;;;;;;;59.78;18.80;;;;;;;4.14;70.65;102732.72;6098248;19;20070;-76
2023/03/02 09:43:17;;;;;;;55.55;18.58;;;;;;;4.36;70.99;102740.00;6095732;19;20232;-75
2023/03/02 09:45:32;;;;;;;51.65;16.48;;;;;;;4.31;69.99;102735.59;6090971;19;20025;-75
2023/03/02 09:48:05;;;;;;;69.22;20.13;;;;;;;4.29;69.96;102742.50;6099688;19;20014;-71
2023/03/02 09:50:23;;;;;;;57.25;18.42;;;;;;;4.55;70.31;102733.34;6098629;19;20011;-71
2023/03/02 09:52:33;;;;;;;58.25;17.48;;;;;;;4.56;69.42;102736.88;6095772;19;20734;-71
2023/03/02 09:54:38;;;;;;;66.45;19.85;;;;;;;4.75;69.73;102731.06;6103621;19;20011;-72
2023/03/02 09:56:47;;;;;;;52.72;16.98;;;;;;;4.70;68.95;102732.72;6104442;19;20711;-71
2023/03/02 09:59:01;;;;;;;46.33;16.58;;;;;;;4.85;68.68;102737.28;6099836;19;20032;-72
2023/03/02 10:01:13;;;;;;;64.85;19.83;;;;;;;4.93;68.89;102737.38;6101295;19;20706;-71
2023/03/02 10:03:24;;;;;;;53.60;16.95;;;;;;;4.93;67.90;102737.38;6096136;19;20266;-72
2023/03/02 10:05:43;;;;;;;48.78;16.52;;;;;;;4.90;67.35;102738.22;6103526;19;20018;-71
2023/03/02 10:07:49;;;;;;;47.25;16.50;;;;;;;4.91;67.46;102733.88;6095208;19;20011;-71
2023/03/02 10:09:55;;;;;;;47.33;17.40;;;;;;;4.85;67.82;102734.66;6095636;19;20030;-72